sensor_id;sensor_type;location;lat;lon;timestamp;P1;P4;P2;P0;N10;N4;N25;N1;N05;TS
77792;SPS30;66983;51.438;5.438;2023-03-14T00:01:56;2.56;2.42;2.13;1.68;13.43;13.42;13.37;13.02;10.81;0.65
77792;SPS30;66983;51.438;5.438;2023-03-14T00:04:22;2.69;2.54;2.23;1.76;14.03;14.02;13.97;13.59;11.28;0.63
77792;SPS30;66983;51.438;5.438;2023-03-14T00:06:48;2.73;2.58;2.28;1.81;14.48;14.47;14.42;14.05;11.69;0.63
77792;SPS30;66983;51.438;5.438;2023-03-14T00:09:15;2.82;2.64;2.28;1.75;13.97;13.96;13.91;13.47;11.07;0.67
77792;SPS30;66983;51.438;5.438;2023-03-14T00:11:41;2.94;2.74;2.36;1.80;14.35;14.35;14.29;13.82;11.33;0.69
77792;SPS30;66983;51.438;5.438;2023-03-14T00:14:07;2.97;2.76;2.35;1.75;13.98;13.97;13.90;13.40;10.90;0.71
77792;SPS30;66983;51.438;5.438;2023-03-14T00:16:32;2.79;2.61;2.27;1.75;13.96;13.96;13.90;13.48;11.10;0.67
77792;SPS30;66983;51.438;5.438;2023-03-14T00:18:58;2.57;2.42;2.11;1.65;13.16;13.15;13.10;12.72;10.52;0.67
77792;SPS30;66983;51.438;5.438;2023-03-14T00:21:24;2.77;2.59;2.25;1.73;13.80;13.79;13.74;13.31;10.95;0.66
77792;SPS30;66983;51.438;5.438;2023-03-14T00:23:51;2.45;2.30;2.01;1.57;12.52;12.51;12.47;12.11;10.01;0.64
77792;SPS30;66983;51.438;5.438;2023-03-14T00:26:18;2.13;2.01;1.76;1.38;11.01;11.00;10.96;10.66;8.83;0.64
77792;SPS30;66983;51.438;5.438;2023-03-14T00:28:45;2.44;2.30;2.01;1.57;12.54;12.53;12.49;12.13;10.04;0.65
77792;SPS30;66983;51.438;5.438;2023-03-14T00:31:13;2.89;2.68;2.27;1.68;13.41;13.40;13.33;12.84;10.42;0.70
77792;SPS30;66983;51.438;5.438;2023-03-14T00:33:40;2.39;2.21;1.84;1.31;10.46;10.46;10.40;9.95;7.97;0.74
77792;SPS30;66983;51.438;5.438;2023-03-14T00:36:08;3.03;2.76;2.23;1.50;12.00;11.98;11.90;11.26;8.81;0.79
77792;SPS30;66983;51.438;5.438;2023-03-14T00:38:54;3.07;2.80;2.26;1.52;12.17;12.16;12.08;11.43;8.94;0.79
77792;SPS30;66983;51.438;5.438;2023-03-14T00:41:20;2.84;2.58;2.08;1.39;11.08;11.07;10.99;10.39;8.09;0.81
77792;SPS30;66983;51.438;5.438;2023-03-14T00:43:48;2.67;2.42;1.93;1.26;10.02;10.01;9.93;9.34;7.19;0.82
77792;SPS30;66983;51.438;5.438;2023-03-14T00:46:14;2.82;2.56;2.03;1.33;10.58;10.57;10.49;9.86;7.60;0.81
77792;SPS30;66983;51.438;5.438;2023-03-14T00:48:43;2.96;2.67;2.11;1.35;10.77;10.75;10.67;9.99;7.63;0.82
77792;SPS30;66983;51.438;5.438;2023-03-14T00:51:10;3.16;2.84;2.21;1.38;10.98;10.97;10.87;10.12;7.63;0.84
77792;SPS30;66983;51.438;5.438;2023-03-14T00:53:42;3.03;2.71;2.09;1.26;10.08;10.07;9.97;9.23;6.85;0.87
77792;SPS30;66983;51.438;5.438;2023-03-14T00:56:09;2.90;2.59;1.99;1.20;9.56;9.55;9.46;8.75;6.47;0.86
77792;SPS30;66983;51.438;5.438;2023-03-14T00:58:36;3.06;2.74;2.12;1.30;10.35;10.33;10.24;9.50;7.09;0.84
77792;SPS30;66983;51.438;5.438;2023-03-14T01:01:10;3.02;2.71;2.11;1.30;10.38;10.37;10.27;9.55;7.17;0.83
77792;SPS30;66983;51.438;5.438;2023-03-14T01:03:39;3.32;3.01;2.39;1.56;12.44;12.42;12.33;11.59;8.93;0.79
77792;SPS30;66983;51.438;5.438;2023-03-14T01:08:34;3.64;3.29;2.60;1.67;13.35;13.34;13.23;12.40;9.49;0.80
77792;SPS30;66983;51.438;5.438;2023-03-14T01:10:59;3.33;3.01;2.40;1.57;12.53;12.52;12.43;11.69;9.02;0.79
77792;SPS30;66983;51.438;5.438;2023-03-14T01:13:30;2.63;2.39;1.93;1.29;10.30;10.29;10.22;9.66;7.54;0.78
77792;SPS30;66983;51.438;5.438;2023-03-14T01:16:00;2.81;2.56;2.07;1.39;11.11;11.10;11.03;10.43;8.16;0.78
77792;SPS30;66983;51.438;5.438;2023-03-14T01:18:27;2.92;2.66;2.14;1.44;11.47;11.46;11.38;10.76;8.39;0.79
77792;SPS30;66983;51.438;5.438;2023-03-14T01:20:52;2.69;2.44;1.96;1.29;10.29;10.28;10.21;9.62;7.45;0.81
77792;SPS30;66983;51.438;5.438;2023-03-14T01:23:18;2.26;2.05;1.65;1.09;8.70;8.69;8.63;8.14;6.31;0.81
77792;SPS30;66983;51.438;5.438;2023-03-14T01:25:43;2.74;2.49;1.99;1.31;10.48;10.47;10.40;9.80;7.59;0.80
77792;SPS30;66983;51.438;5.438;2023-03-14T01:28:09;2.77;2.51;1.98;1.28;10.21;10.20;10.12;9.49;7.28;0.81
77792;SPS30;66983;51.438;5.438;2023-03-14T01:30:35;3.16;2.85;2.26;1.45;11.61;11.59;11.51;10.79;8.27;0.81
77792;SPS30;66983;51.438;5.438;2023-03-14T01:33:00;3.50;3.17;2.53;1.66;13.26;13.24;13.15;12.38;9.57;0.80
77792;SPS30;66983;51.438;5.438;2023-03-14T01:35:26;3.05;2.77;2.21;1.45;11.56;11.55;11.46;10.79;8.34;0.80
77792;SPS30;66983;51.438;5.438;2023-03-14T01:37:54;2.77;2.52;2.04;1.38;11.01;11.00;10.93;10.35;8.10;0.78
77792;SPS30;66983;51.438;5.438;2023-03-14T01:40:21;2.75;2.50;2.01;1.35;10.75;10.74;10.67;10.08;7.86;0.80
77792;SPS30;66983;51.438;5.438;2023-03-14T01:42:55;3.19;2.91;2.35;1.58;12.59;12.58;12.49;11.82;9.23;0.80
77792;SPS30;66983;51.438;5.438;2023-03-14T01:48:28;2.87;2.61;2.10;1.40;11.18;11.17;11.09;10.48;8.16;0.81
77792;SPS30;66983;51.438;5.438;2023-03-14T01:54:04;2.71;2.48;2.01;1.37;10.92;10.91;10.84;10.28;8.08;0.78
77792;SPS30;66983;51.438;5.438;2023-03-14T01:56:35;3.61;3.28;2.65;1.78;14.18;14.16;14.07;13.30;10.38;0.79
77792;SPS30;66983;51.438;5.438;2023-03-14T01:59:03;2.79;2.54;2.06;1.39;11.13;11.12;11.04;10.46;8.19;0.77
77792;SPS30;66983;51.438;5.438;2023-03-14T02:01:33;3.61;3.29;2.67;1.81;14.44;14.42;14.33;13.58;10.65;0.77
77792;SPS30;66983;51.438;5.438;2023-03-14T02:04:01;3.08;2.80;2.26;1.52;12.12;12.11;12.03;11.38;8.89;0.79
77792;SPS30;66983;51.438;5.438;2023-03-14T02:06:38;3.16;2.87;2.29;1.51;12.02;12.01;11.92;11.22;8.68;0.81
77792;SPS30;66983;51.438;5.438;2023-03-14T02:09:14;3.82;3.46;2.75;1.78;14.19;14.17;14.07;13.21;10.14;0.83
77792;SPS30;66983;51.438;5.438;2023-03-14T02:11:41;3.87;3.51;2.80;1.83;14.59;14.58;14.47;13.61;10.50;0.81
77792;SPS30;66983;51.438;5.438;2023-03-14T02:14:32;4.02;3.62;2.85;1.80;14.39;14.37;14.25;13.32;10.12;0.84
77792;SPS30;66983;51.438;5.438;2023-03-14T02:17:18;4.09;3.69;2.89;1.82;14.55;14.53;14.41;13.46;10.20;0.85
77792;SPS30;66983;51.438;5.438;2023-03-14T02:20:25;4.12;3.70;2.86;1.76;14.02;14.00;13.88;12.88;9.63;0.86
77792;SPS30;66983;51.438;5.438;2023-03-14T02:23:03;3.97;3.56;2.76;1.69;13.49;13.47;13.35;12.39;9.26;0.86
77792;SPS30;66983;51.438;5.438;2023-03-14T02:25:36;4.45;4.00;3.10;1.90;15.19;15.17;15.04;13.97;10.46;0.86
77792;SPS30;66983;51.438;5.438;2023-03-14T02:28:13;4.73;4.23;3.23;1.92;15.31;15.29;15.14;13.95;10.25;0.88
77792;SPS30;66983;51.438;5.438;2023-03-14T02:30:40;4.69;4.20;3.25;1.98;15.77;15.75;15.61;14.46;10.78;0.86
77792;SPS30;66983;51.438;5.438;2023-03-14T02:33:13;4.25;3.81;2.95;1.80;14.39;14.38;14.25;13.22;9.87;0.85
77792;SPS30;66983;51.438;5.438;2023-03-14T02:35:56;3.96;3.54;2.73;1.65;13.19;13.17;13.05;12.08;8.97;0.86
77792;SPS30;66983;51.438;5.438;2023-03-14T02:38:33;4.10;3.67;2.83;1.72;13.72;13.71;13.58;12.58;9.35;0.87
77792;SPS30;66983;51.438;5.438;2023-03-14T02:41:06;3.32;3.00;2.37;1.51;12.07;12.06;11.97;11.21;8.56;0.83
77792;SPS30;66983;51.438;5.438;2023-03-14T02:43:38;3.19;2.89;2.30;1.50;11.94;11.93;11.84;11.13;8.57;0.80
77792;SPS30;66983;51.438;5.438;2023-03-14T02:46:09;3.62;3.26;2.56;1.61;12.87;12.86;12.75;11.91;9.03;0.82
77792;SPS30;66983;51.438;5.438;2023-03-14T02:48:39;4.42;3.96;3.06;1.85;14.77;14.75;14.62;13.53;10.06;0.85
77792;SPS30;66983;51.438;5.438;2023-03-14T02:51:11;3.94;3.53;2.71;1.63;13.04;13.03;12.90;11.93;8.84;0.85
77792;SPS30;66983;51.438;5.438;2023-03-14T02:53:38;3.58;3.22;2.50;1.55;12.38;12.37;12.26;11.41;8.57;0.85
77792;SPS30;66983;51.438;5.438;2023-03-14T02:56:09;4.05;3.65;2.86;1.80;14.40;14.38;14.26;13.32;10.10;0.84
77792;SPS30;66983;51.438;5.438;2023-03-14T02:58:36;3.62;3.26;2.56;1.62;12.90;12.89;12.78;11.94;9.06;0.83
77792;SPS30;66983;51.438;5.438;2023-03-14T03:01:25;4.15;3.73;2.89;1.78;14.20;14.18;14.05;13.05;9.78;0.85
77792;SPS30;66983;51.438;5.438;2023-03-14T03:03:51;4.52;4.05;3.14;1.92;15.30;15.28;15.14;14.04;10.48;0.86
77792;SPS30;66983;51.438;5.438;2023-03-14T03:06:18;4.69;4.18;3.18;1.85;14.77;14.75;14.60;13.39;9.74;0.89
77792;SPS30;66983;51.438;5.438;2023-03-14T03:08:44;4.47;4.01;3.10;1.88;15.00;14.98;14.84;13.75;10.23;0.84
77792;SPS30;66983;51.438;5.438;2023-03-14T03:11:11;3.80;3.41;2.64;1.62;12.95;12.93;12.82;11.90;8.91;0.84
77792;SPS30;66983;51.438;5.438;2023-03-14T03:13:36;4.09;3.67;2.85;1.75;13.97;13.96;13.83;12.85;9.62;0.84
77792;SPS30;66983;51.438;5.438;2023-03-14T03:16:04;3.97;3.57;2.78;1.72;13.74;13.73;13.61;12.66;9.52;0.84
77792;SPS30;66983;51.438;5.438;2023-03-14T03:18:30;4.02;3.61;2.83;1.77;14.13;14.11;13.99;13.05;9.86;0.83
77792;SPS30;66983;51.438;5.438;2023-03-14T03:20:56;3.49;3.14;2.44;1.52;12.13;12.11;12.01;11.18;8.42;0.84
77792;SPS30;66983;51.438;5.438;2023-03-14T03:23:25;4.14;3.74;2.94;1.87;14.96;14.94;14.82;13.87;10.57;0.82
77792;SPS30;66983;51.438;5.438;2023-03-14T03:25:51;3.67;3.32;2.64;1.72;13.74;13.73;13.63;12.81;9.87;0.79
77792;SPS30;66983;51.438;5.438;2023-03-14T03:28:17;4.12;3.72;2.93;1.86;14.87;14.85;14.74;13.79;10.50;0.81
77792;SPS30;66983;51.438;5.438;2023-03-14T03:30:44;3.94;3.54;2.76;1.72;13.73;13.72;13.60;12.67;9.55;0.81
77792;SPS30;66983;51.438;5.438;2023-03-14T03:33:10;4.18;3.74;2.88;1.75;13.93;13.91;13.78;12.76;9.48;0.82
77792;SPS30;66983;51.438;5.438;2023-03-14T03:35:46;4.19;3.76;2.92;1.80;14.36;14.34;14.21;13.20;9.89;0.80
77792;SPS30;66983;51.438;5.438;2023-03-14T03:38:18;4.12;3.71;2.89;1.80;14.34;14.33;14.20;13.22;9.96;0.81
77792;SPS30;66983;51.438;5.438;2023-03-14T03:40:47;4.01;3.60;2.79;1.70;13.59;13.57;13.45;12.47;9.31;0.83
77792;SPS30;66983;51.438;5.438;2023-03-14T03:43:13;4.32;3.87;2.99;1.81;14.43;14.41;14.28;13.22;9.82;0.85
77792;SPS30;66983;51.438;5.438;2023-03-14T03:45:41;4.24;3.83;3.01;1.91;15.24;15.22;15.10;14.12;10.74;0.81
77792;SPS30;66983;51.438;5.438;2023-03-14T03:48:07;3.63;3.26;2.55;1.59;12.71;12.69;12.59;11.73;8.86;0.84
77792;SPS30;66983;51.438;5.438;2023-03-14T03:50:32;3.75;3.38;2.66;1.68;13.42;13.41;13.30;12.43;9.44;0.83
77792;SPS30;66983;51.438;5.438;2023-03-14T03:52:58;3.85;3.47;2.71;1.69;13.48;13.46;13.35;12.44;9.38;0.84
77792;SPS30;66983;51.438;5.438;2023-03-14T03:55:24;3.73;3.35;2.62;1.63;13.04;13.02;12.91;12.03;9.07;0.84
77792;SPS30;66983;51.438;5.438;2023-03-14T03:57:51;3.46;3.11;2.41;1.48;11.84;11.83;11.73;10.89;8.16;0.86
77792;SPS30;66983;51.438;5.438;2023-03-14T04:00:16;3.20;2.87;2.22;1.36;10.85;10.84;10.74;9.96;7.44;0.86
77792;SPS30;66983;51.438;5.438;2023-03-14T04:02:42;3.60;3.23;2.49;1.52;12.14;12.13;12.02;11.14;8.31;0.86
77792;SPS30;66983;51.438;5.438;2023-03-14T04:05:11;3.26;2.93;2.28;1.41;11.26;11.24;11.14;10.37;7.79;0.85
77792;SPS30;66983;51.438;5.438;2023-03-14T04:07:42;2.99;2.69;2.09;1.29;10.29;10.28;10.19;9.47;7.11;0.87
77792;SPS30;66983;51.438;5.438;2023-03-14T04:10:08;3.38;3.03;2.33;1.40;11.17;11.15;11.05;10.21;7.56;0.90
77792;SPS30;66983;51.438;5.438;2023-03-14T04:12:41;2.80;2.51;1.95;1.19;9.53;9.52;9.43;8.75;6.55;0.87
77792;SPS30;66983;51.438;5.438;2023-03-14T04:15:13;2.12;1.92;1.51;0.96;7.66;7.65;7.59;7.10;5.41;0.84
77792;SPS30;66983;51.438;5.438;2023-03-14T04:17:45;2.24;2.02;1.61;1.04;8.32;8.31;8.25;7.75;5.95;0.83
77792;SPS30;66983;51.438;5.438;2023-03-14T04:20:12;2.21;2.01;1.60;1.05;8.39;8.38;8.32;7.83;6.05;0.82
77792;SPS30;66983;51.438;5.438;2023-03-14T04:22:39;2.09;1.89;1.50;0.97;7.78;7.77;7.71;7.24;5.56;0.82
77792;SPS30;66983;51.438;5.438;2023-03-14T04:25:05;1.90;1.73;1.39;0.92;7.32;7.32;7.26;6.85;5.32;0.81
77792;SPS30;66983;51.438;5.438;2023-03-14T04:27:36;1.92;1.75;1.42;0.96;7.65;7.64;7.59;7.19;5.63;0.80
77792;SPS30;66983;51.438;5.438;2023-03-14T04:30:04;1.62;1.47;1.17;0.77;6.13;6.12;6.08;5.72;4.42;0.82
77792;SPS30;66983;51.438;5.438;2023-03-14T04:32:45;1.86;1.69;1.35;0.89;7.11;7.10;7.05;6.65;5.15;0.81
77792;SPS30;66983;51.438;5.438;2023-03-14T04:35:10;1.79;1.63;1.30;0.86;6.90;6.89;6.84;6.46;5.01;0.81
77792;SPS30;66983;51.438;5.438;2023-03-14T04:37:36;2.05;1.86;1.49;0.99;7.89;7.89;7.83;7.38;5.73;0.81
77792;SPS30;66983;51.438;5.438;2023-03-14T04:40:02;1.77;1.62;1.31;0.89;7.14;7.13;7.08;6.72;5.28;0.79
77792;SPS30;66983;51.438;5.438;2023-03-14T04:42:32;1.71;1.56;1.28;0.88;7.02;7.01;6.97;6.62;5.23;0.78
77792;SPS30;66983;51.438;5.438;2023-03-14T04:44:58;2.16;1.97;1.61;1.11;8.88;8.87;8.81;8.38;6.62;0.77
77792;SPS30;66983;51.438;5.438;2023-03-14T04:47:25;1.94;1.79;1.51;1.10;8.76;8.75;8.71;8.36;6.75;0.71
77792;SPS30;66983;51.438;5.438;2023-03-14T04:49:52;1.75;1.63;1.37;1.01;8.07;8.07;8.03;7.72;6.26;0.70
77792;SPS30;66983;51.438;5.438;2023-03-14T04:52:18;2.22;2.06;1.76;1.31;10.47;10.46;10.41;10.04;8.17;0.69
77792;SPS30;66983;51.438;5.438;2023-03-14T04:54:46;1.91;1.79;1.56;1.20;9.62;9.61;9.57;9.28;7.65;0.65
77792;SPS30;66983;51.438;5.438;2023-03-14T04:57:11;2.10;1.99;1.78;1.43;11.43;11.42;11.39;11.12;9.29;0.62
77792;SPS30;66983;51.438;5.438;2023-03-14T04:59:38;2.42;2.32;2.12;1.78;14.23;14.22;14.19;13.94;11.80;0.59
77792;SPS30;66983;51.438;5.438;2023-03-14T05:02:24;2.24;2.17;2.02;1.75;13.94;13.93;13.91;13.72;11.70;0.55
77792;SPS30;66983;51.438;5.438;2023-03-14T05:05:18;1.99;1.95;1.87;1.68;13.41;13.41;13.39;13.28;11.44;0.50
77792;SPS30;66983;51.438;5.438;2023-03-14T05:08:22;1.99;1.98;1.96;1.84;14.65;14.65;14.64;14.60;12.72;0.47
77792;SPS30;66983;51.438;5.438;2023-03-14T05:11:11;1.83;1.83;1.83;1.73;13.79;13.79;13.78;13.76;12.02;0.44
77792;SPS30;66983;51.438;5.438;2023-03-14T05:14:04;1.87;1.87;1.87;1.77;14.12;14.12;14.12;14.09;12.31;0.46
77792;SPS30;66983;51.438;5.438;2023-03-14T05:16:48;2.11;2.10;2.08;1.95;15.55;15.55;15.54;15.50;13.50;0.48
77792;SPS30;66983;51.438;5.438;2023-03-14T05:19:42;2.32;2.30;2.25;2.08;16.63;16.62;16.61;16.54;14.36;0.49
77792;SPS30;66983;51.438;5.438;2023-03-14T05:22:27;2.08;2.06;2.03;1.88;15.00;15.00;14.99;14.93;12.98;0.49
77792;SPS30;66983;51.438;5.438;2023-03-14T05:24:55;1.95;1.94;1.92;1.79;14.28;14.28;14.27;14.23;12.38;0.48
77792;SPS30;66983;51.438;5.438;2023-03-14T05:27:59;2.15;2.15;2.15;2.03;16.22;16.22;16.22;16.19;14.14;0.46
77792;SPS30;66983;51.438;5.438;2023-03-14T05:30:37;2.28;2.28;2.27;2.14;17.12;17.11;17.11;17.08;14.91;0.47
77792;SPS30;66983;51.438;5.438;2023-03-14T05:33:26;2.14;2.13;2.11;1.97;15.74;15.74;15.73;15.68;13.66;0.48
77792;SPS30;66983;51.438;5.438;2023-03-14T05:36:15;2.08;2.06;2.00;1.84;14.67;14.67;14.66;14.58;12.64;0.51
77792;SPS30;66983;51.438;5.438;2023-03-14T05:39:07;2.48;2.45;2.37;2.16;17.27;17.26;17.25;17.14;14.83;0.51
77792;SPS30;66983;51.438;5.438;2023-03-14T05:42:02;2.37;2.33;2.27;2.08;16.62;16.62;16.61;16.51;14.30;0.50
77792;SPS30;66983;51.438;5.438;2023-03-14T05:44:46;2.39;2.36;2.29;2.09;16.70;16.70;16.69;16.59;14.36;0.49
77792;SPS30;66983;51.438;5.438;2023-03-14T05:47:28;2.53;2.50;2.43;2.21;17.65;17.65;17.63;17.52;15.16;0.51
77792;SPS30;66983;51.438;5.438;2023-03-14T05:50:06;2.23;2.19;2.13;1.94;15.45;15.45;15.43;15.33;13.26;0.50
77792;SPS30;66983;51.438;5.438;2023-03-14T05:52:50;2.31;2.28;2.20;2.00;15.99;15.98;15.97;15.86;13.71;0.51
77792;SPS30;66983;51.438;5.438;2023-03-14T05:55:42;2.22;2.19;2.12;1.92;15.32;15.31;15.30;15.19;13.13;0.49
77792;SPS30;66983;51.438;5.438;2023-03-14T05:58:24;2.18;2.15;2.09;1.90;15.18;15.17;15.16;15.06;13.03;0.51
77792;SPS30;66983;51.438;5.438;2023-03-14T06:01:19;2.17;2.14;2.07;1.89;15.10;15.10;15.09;14.99;12.98;0.51
77792;SPS30;66983;51.438;5.438;2023-03-14T06:04:01;1.97;1.94;1.88;1.72;13.73;13.73;13.72;13.63;11.80;0.50
77792;SPS30;66983;51.438;5.438;2023-03-14T06:06:28;2.09;2.06;2.00;1.82;14.56;14.56;14.55;14.45;12.51;0.50
77792;SPS30;66983;51.438;5.438;2023-03-14T06:08:53;2.49;2.44;2.34;2.09;16.71;16.71;16.69;16.55;14.26;0.52
77792;SPS30;66983;51.438;5.438;2023-03-14T06:11:19;2.17;2.13;2.04;1.84;14.65;14.65;14.63;14.51;12.51;0.50
77792;SPS30;66983;51.438;5.438;2023-03-14T06:13:45;2.01;2.00;1.99;1.86;14.87;14.86;14.86;14.82;12.91;0.47
77792;SPS30;66983;51.438;5.438;2023-03-14T06:16:11;2.12;2.10;2.06;1.90;15.18;15.18;15.17;15.10;13.11;0.48
77792;SPS30;66983;51.438;5.438;2023-03-14T06:18:38;2.56;2.54;2.49;2.30;18.34;18.34;18.33;18.25;15.84;0.48
77792;SPS30;66983;51.438;5.438;2023-03-14T06:21:06;2.11;2.10;2.08;1.94;15.47;15.47;15.46;15.41;13.42;0.47
77792;SPS30;66983;51.438;5.438;2023-03-14T06:23:34;2.17;2.16;2.14;2.00;16.00;16.00;15.99;15.95;13.89;0.49
77792;SPS30;66983;51.438;5.438;2023-03-14T06:26:01;2.14;2.12;2.09;1.94;15.47;15.47;15.46;15.40;13.39;0.50
77792;SPS30;66983;51.438;5.438;2023-03-14T06:28:27;2.15;2.13;2.10;1.95;15.55;15.54;15.54;15.48;13.46;0.49
77792;SPS30;66983;51.438;5.438;2023-03-14T06:30:57;2.30;2.28;2.24;2.08;16.59;16.58;16.57;16.50;14.34;0.51
77792;SPS30;66983;51.438;5.438;2023-03-14T06:33:24;2.37;2.35;2.32;2.15;17.19;17.19;17.18;17.11;14.88;0.49
77792;SPS30;66983;51.438;5.438;2023-03-14T06:35:49;2.01;2.01;2.01;1.90;15.15;15.15;15.14;15.12;13.21;0.46
77792;SPS30;66983;51.438;5.438;2023-03-14T06:38:15;2.43;2.43;2.43;2.30;18.34;18.34;18.33;18.31;15.99;0.46
77792;SPS30;66983;51.438;5.438;2023-03-14T06:40:41;2.30;2.28;2.26;2.11;16.86;16.86;16.85;16.80;14.63;0.48
77792;SPS30;66983;51.438;5.438;2023-03-14T06:43:11;2.20;2.18;2.14;1.98;15.83;15.82;15.81;15.75;13.68;0.48
77792;SPS30;66983;51.438;5.438;2023-03-14T06:45:38;2.17;2.16;2.14;2.00;15.95;15.94;15.94;15.89;13.84;0.48
77792;SPS30;66983;51.438;5.438;2023-03-14T06:48:05;2.31;2.30;2.29;2.15;17.14;17.14;17.13;17.09;14.90;0.47
77792;SPS30;66983;51.438;5.438;2023-03-14T06:50:37;2.35;2.35;2.35;2.22;17.74;17.73;17.73;17.70;15.46;0.47
77792;SPS30;66983;51.438;5.438;2023-03-14T06:53:03;2.55;2.55;2.55;2.41;19.27;19.27;19.27;19.24;16.80;0.47
77792;SPS30;66983;51.438;5.438;2023-03-14T06:55:31;2.48;2.48;2.48;2.35;18.73;18.73;18.72;18.69;16.33;0.47
77792;SPS30;66983;51.438;5.438;2023-03-14T06:57:56;2.36;2.36;2.36;2.22;17.74;17.74;17.73;17.70;15.45;0.48
77792;SPS30;66983;51.438;5.438;2023-03-14T07:00:22;2.45;2.45;2.44;2.31;18.45;18.45;18.45;18.42;16.09;0.47
77792;SPS30;66983;51.438;5.438;2023-03-14T07:02:52;2.50;2.50;2.49;2.35;18.73;18.72;18.72;18.68;16.30;0.49
77792;SPS30;66983;51.438;5.438;2023-03-14T07:05:26;2.72;2.71;2.71;2.55;20.38;20.38;20.37;20.34;17.75;0.48
77792;SPS30;66983;51.438;5.438;2023-03-14T07:07:52;2.62;2.62;2.62;2.47;19.74;19.74;19.73;19.70;17.21;0.48
77792;SPS30;66983;51.438;5.438;2023-03-14T07:10:18;2.40;2.40;2.40;2.27;18.15;18.15;18.14;18.12;15.82;0.46
77792;SPS30;66983;51.438;5.438;2023-03-14T07:12:43;2.43;2.43;2.43;2.30;18.33;18.33;18.33;18.30;15.98;0.45
77792;SPS30;66983;51.438;5.438;2023-03-14T07:15:09;2.63;2.63;2.63;2.49;19.89;19.88;19.88;19.85;17.34;0.45
77792;SPS30;66983;51.438;5.438;2023-03-14T07:17:35;2.76;2.76;2.76;2.61;20.80;20.80;20.80;20.77;18.14;0.45
77792;SPS30;66983;51.438;5.438;2023-03-14T07:20:00;2.82;2.82;2.82;2.67;21.31;21.31;21.30;21.27;18.58;0.45
77792;SPS30;66983;51.438;5.438;2023-03-14T07:22:27;2.47;2.47;2.47;2.34;18.66;18.65;18.65;18.62;16.26;0.46
77792;SPS30;66983;51.438;5.438;2023-03-14T07:24:52;2.36;2.36;2.36;2.23;17.80;17.80;17.80;17.77;15.52;0.47
77792;SPS30;66983;51.438;5.438;2023-03-14T07:27:21;2.75;2.75;2.75;2.60;20.76;20.76;20.75;20.72;18.10;0.46
77792;SPS30;66983;51.438;5.438;2023-03-14T07:29:48;2.61;2.61;2.61;2.46;19.67;19.67;19.66;19.64;17.15;0.47
77792;SPS30;66983;51.438;5.438;2023-03-14T07:32:13;2.87;2.87;2.87;2.72;21.68;21.68;21.68;21.64;18.90;0.47
77792;SPS30;66983;51.438;5.438;2023-03-14T07:34:43;3.08;3.07;3.07;2.90;23.12;23.11;23.11;23.07;20.13;0.49
77792;SPS30;66983;51.438;5.438;2023-03-14T07:37:09;2.98;2.98;2.97;2.80;22.39;22.39;22.38;22.34;19.50;0.49
77792;SPS30;66983;51.438;5.438;2023-03-14T07:39:35;2.34;2.34;2.34;2.21;17.61;17.60;17.60;17.57;15.33;0.48
77792;SPS30;66983;51.438;5.438;2023-03-14T07:42:07;1.30;1.30;1.30;1.22;9.78;9.77;9.77;9.76;8.52;0.47
77792;SPS30;66983;51.438;5.438;2023-03-14T07:44:52;0.64;0.64;0.64;0.60;4.82;4.82;4.82;4.81;4.19;0.47
77792;SPS30;66983;51.438;5.438;2023-03-14T07:47:17;0.58;0.58;0.58;0.55;4.39;4.39;4.39;4.38;3.83;0.47
77792;SPS30;66983;51.438;5.438;2023-03-14T07:49:43;0.52;0.52;0.52;0.49;3.95;3.95;3.95;3.94;3.44;0.47
77792;SPS30;66983;51.438;5.438;2023-03-14T07:52:08;0.64;0.64;0.63;0.59;4.72;4.72;4.72;4.71;4.10;0.48
77792;SPS30;66983;51.438;5.438;2023-03-14T07:54:34;0.63;0.63;0.62;0.58;4.61;4.61;4.61;4.59;4.00;0.49
77792;SPS30;66983;51.438;5.438;2023-03-14T07:57:00;0.68;0.68;0.67;0.63;4.99;4.99;4.99;4.97;4.33;0.50
77792;SPS30;66983;51.438;5.438;2023-03-14T07:59:26;0.65;0.64;0.63;0.59;4.70;4.70;4.70;4.68;4.07;0.52
77792;SPS30;66983;51.438;5.438;2023-03-14T08:01:52;0.78;0.77;0.76;0.70;5.57;5.57;5.57;5.54;4.81;0.52
77792;SPS30;66983;51.438;5.438;2023-03-14T08:04:18;0.64;0.63;0.62;0.56;4.49;4.49;4.49;4.46;3.86;0.54
77792;SPS30;66983;51.438;5.438;2023-03-14T08:06:44;0.72;0.71;0.70;0.64;5.12;5.12;5.11;5.09;4.41;0.53
77792;SPS30;66983;51.438;5.438;2023-03-14T08:09:09;0.90;0.90;0.88;0.81;6.50;6.50;6.49;6.46;5.62;0.52
77792;SPS30;66983;51.438;5.438;2023-03-14T08:11:35;0.84;0.83;0.82;0.76;6.07;6.07;6.06;6.04;5.25;0.51
77792;SPS30;66983;51.438;5.438;2023-03-14T08:14:01;1.00;0.99;0.98;0.91;7.25;7.25;7.25;7.22;6.27;0.51
77792;SPS30;66983;51.438;5.438;2023-03-14T08:16:27;1.22;1.21;1.20;1.11;8.86;8.86;8.86;8.82;7.67;0.51
77792;SPS30;66983;51.438;5.438;2023-03-14T08:18:52;1.41;1.41;1.40;1.31;10.47;10.46;10.46;10.43;9.09;0.48
77792;SPS30;66983;51.438;5.438;2023-03-14T08:21:18;1.58;1.58;1.58;1.50;11.94;11.94;11.94;11.92;10.41;0.44
77792;SPS30;66983;51.438;5.438;2023-03-14T08:23:43;1.49;1.49;1.49;1.41;11.29;11.28;11.28;11.26;9.84;0.42
77792;SPS30;66983;51.438;5.438;2023-03-14T08:26:09;1.58;1.58;1.58;1.50;11.94;11.94;11.94;11.92;10.41;0.42
77792;SPS30;66983;51.438;5.438;2023-03-14T08:28:34;1.49;1.49;1.49;1.41;11.23;11.23;11.23;11.21;9.79;0.42
77792;SPS30;66983;51.438;5.438;2023-03-14T08:31:00;1.34;1.34;1.34;1.27;10.14;10.14;10.13;10.12;8.84;0.41
77792;SPS30;66983;51.438;5.438;2023-03-14T08:33:26;1.24;1.24;1.24;1.18;9.39;9.39;9.39;9.38;8.19;0.41
77792;SPS30;66983;51.438;5.438;2023-03-14T08:35:54;1.33;1.33;1.33;1.26;10.05;10.05;10.04;10.03;8.76;0.40
77792;SPS30;66983;51.438;5.438;2023-03-14T08:38:21;1.27;1.27;1.27;1.20;9.60;9.60;9.60;9.58;8.37;0.40
77792;SPS30;66983;51.438;5.438;2023-03-14T08:40:47;1.05;1.05;1.05;0.99;7.94;7.94;7.94;7.93;6.92;0.41
77792;SPS30;66983;51.438;5.438;2023-03-14T08:43:20;0.98;0.98;0.98;0.92;7.37;7.37;7.37;7.36;6.42;0.43
77792;SPS30;66983;51.438;5.438;2023-03-14T08:45:46;1.17;1.17;1.17;1.11;8.85;8.85;8.85;8.83;7.72;0.45
77792;SPS30;66983;51.438;5.438;2023-03-14T08:48:11;1.11;1.11;1.11;1.05;8.39;8.39;8.38;8.37;7.31;0.45
77792;SPS30;66983;51.438;5.438;2023-03-14T08:50:37;1.05;1.05;1.05;0.99;7.93;7.93;7.92;7.91;6.91;0.45
77792;SPS30;66983;51.438;5.438;2023-03-14T08:53:03;1.26;1.26;1.26;1.20;9.54;9.54;9.54;9.53;8.32;0.47
77792;SPS30;66983;51.438;5.438;2023-03-14T08:55:29;1.25;1.25;1.25;1.18;9.44;9.44;9.44;9.43;8.23;0.46
77792;SPS30;66983;51.438;5.438;2023-03-14T08:57:54;1.37;1.37;1.37;1.29;10.32;10.32;10.32;10.31;9.00;0.43
77792;SPS30;66983;51.438;5.438;2023-03-14T09:00:20;1.63;1.63;1.63;1.54;12.28;12.28;12.28;12.26;10.71;0.43
77792;SPS30;66983;51.438;5.438;2023-03-14T09:02:46;1.61;1.61;1.61;1.52;12.17;12.17;12.17;12.15;10.61;0.43
77792;SPS30;66983;51.438;5.438;2023-03-14T09:05:12;1.73;1.73;1.73;1.64;13.09;13.09;13.08;13.06;11.41;0.43
77792;SPS30;66983;51.438;5.438;2023-03-14T09:07:38;1.47;1.47;1.47;1.39;11.06;11.06;11.06;11.04;9.65;0.43
77792;SPS30;66983;51.438;5.438;2023-03-14T09:10:05;1.47;1.47;1.47;1.39;11.09;11.09;11.09;11.07;9.67;0.46
77792;SPS30;66983;51.438;5.438;2023-03-14T09:12:32;1.42;1.40;1.36;1.24;9.90;9.90;9.89;9.83;8.51;0.48
77792;SPS30;66983;51.438;5.438;2023-03-14T09:14:58;1.55;1.51;1.45;1.29;10.34;10.33;10.32;10.23;8.81;0.48
77792;SPS30;66983;51.438;5.438;2023-03-14T09:17:24;1.67;1.62;1.52;1.32;10.55;10.55;10.53;10.40;8.89;0.49
77792;SPS30;66983;51.438;5.438;2023-03-14T09:19:49;1.63;1.57;1.45;1.24;9.90;9.89;9.87;9.72;8.27;0.50
77792;SPS30;66983;51.438;5.438;2023-03-14T09:22:15;1.77;1.70;1.57;1.34;10.66;10.66;10.64;10.47;8.89;0.51
77792;SPS30;66983;51.438;5.438;2023-03-14T09:24:41;1.43;1.37;1.26;1.06;8.46;8.46;8.44;8.29;7.02;0.52
77792;SPS30;66983;51.438;5.438;2023-03-14T09:27:06;1.27;1.22;1.13;0.95;7.61;7.61;7.60;7.47;6.34;0.54
77792;SPS30;66983;51.438;5.438;2023-03-14T09:29:32;1.45;1.39;1.27;1.06;8.49;8.49;8.47;8.32;7.03;0.55
77792;SPS30;66983;51.438;5.438;2023-03-14T09:31:58;1.40;1.35;1.25;1.06;8.50;8.50;8.48;8.35;7.09;0.54
77792;SPS30;66983;51.438;5.438;2023-03-14T09:34:24;1.33;1.28;1.19;1.03;8.18;8.18;8.17;8.05;6.86;0.54
77792;SPS30;66983;51.438;5.438;2023-03-14T09:36:50;1.38;1.33;1.24;1.06;8.47;8.47;8.45;8.32;7.08;0.54
77792;SPS30;66983;51.438;5.438;2023-03-14T09:39:16;1.53;1.48;1.38;1.20;9.57;9.57;9.55;9.43;8.05;0.52
77792;SPS30;66983;51.438;5.438;2023-03-14T09:41:48;1.46;1.42;1.34;1.18;9.41;9.41;9.40;9.29;7.96;0.50